Domov               UVHVVR             MKGP            O straneh              
ZDRAVSTVENO VARSTVO RASTLIN
  MREŽA AGROMET. POSTAJ
 ► PROGNOSTIČNA OBVESTILA
AGROMETEOROLOŠKI PODATKI -
ARSO
OBVLADOVANJE TVEGANJ ZARADI
NEUGODNIH VREMENSKIH RAZMER
  ► NARAVNE NESREČE
  ► SUŠA/MOČA
  ► NAMAKANJE
  ► ŽLED (gozdarstvo)
KARTOGRAFSKI PRIKAZI
SPLETNE POVEZAVE
PROJEKTI IN PUBLIKACIJE

AGROMETEOROLOŠKA MREŽA: VREMENSKE POSTAJE IN FENOLOŠKA OPAZOVANJA

Pregled podatkov za lokacijo Godemarci, meteorološka postaja 37828

Pregled senzorjev na lokaciji

ID Ime Zadnja
vrednost
Datum
zadnje
spremembe
Tip
senzorja
4311 Omočenost lista (U) 0 U 19.7.2018 22:00 A730WET
3802 Padavine (mm) 0 mm 19.7.2018 22:00 Rain-O-Matic
3801 Relativna vlaga 2 m (% RH) 88,86 % RH 19.7.2018 22:00 50YA
3800 Temperatura 2 m (°C) 18,07 °C 19.7.2018 22:00 50YA

Pregled podatkov zadnjih 24 ur

Zap.
št.
Datum in čas Godemarci
Omočenost
lista
Padavine Relativna
vlaga
2
m
Temperatura
2
m
1 19.7.2018 23:30
2 19.7.2018 23:00
3 19.7.2018 22:30
4 19.7.2018 22:00
5 19.7.2018 21:30
6 19.7.2018 21:00 0 0 88,9 18,1
7 19.7.2018 20:30 0 0 86,2 18,9
8 19.7.2018 20:00 0 0 83 20
9 19.7.2018 19:30 0 0 76,5 21,8
10 19.7.2018 19:00 0 0 63,6 24,1
11 19.7.2018 18:30 0 0 51 26,1
12 19.7.2018 18:00 0 0 45,1 27,6
13 19.7.2018 17:30 0 0 37,5 31
14 19.7.2018 17:00 0 0 32,1 31,8
15 19.7.2018 16:30 0 0 31,3 31,4
16 19.7.2018 16:00 0 0 31,3 30,6
17 19.7.2018 15:30 0 0 32,9 30,1
18 19.7.2018 15:00 0 0 32,9 29,9
19 19.7.2018 14:30 0 0 33,5 30
20 19.7.2018 14:00 0 0 32,6 30,3
21 19.7.2018 13:30 0 0 35,5 29,7
22 19.7.2018 13:00 0 0 37,1 29
23 19.7.2018 12:30 0 0 37,7 28,5
24 19.7.2018 12:00 0 0 39,7 28,1
25 19.7.2018 11:30 0 0 43 27,5
26 19.7.2018 11:00 0 0 44,1 27,8
27 19.7.2018 10:30 0 0 43,4 28,4
28 19.7.2018 10:00 0 0 44,2 28,1
29 19.7.2018 09:30 0 0 45,8 27,4
30 19.7.2018 09:00 0 0 48 26,4
31 19.7.2018 08:30 0 0 52,7 25,7
32 19.7.2018 08:00 0 0 56,9 24,5
33 19.7.2018 07:30 0 0 63,2 22,6
34 19.7.2018 07:00 0 0 72,4 20,6
35 19.7.2018 06:30 10 0 82,2 18,3
36 19.7.2018 06:00 10 0 94,6 16,4
37 19.7.2018 05:30 10 0 99,9 15,2
38 19.7.2018 05:00 10 0 99,9 14,6
39 19.7.2018 04:30 10 0 99,9 14,9
40 19.7.2018 04:00 10 0 99,9 15,2
41 19.7.2018 03:30 5 0 99,9 15,5
42 19.7.2018 03:00 1 0 99,9 15,8
43 19.7.2018 02:30 0 0 99,9 16,3
44 19.7.2018 02:00 0 0 99,9 16,5
45 19.7.2018 01:30 0 0 99,9 16,7
46 19.7.2018 01:00 0 0 98,8 16,8
47 19.7.2018 00:30 0 0 91,6 17
48 19.7.2018 00:00 0 0 88,2 17,4
© 2011 Ministrstvo za kmetijstvo, gozdarstvo in prehrano. Vse pravice pridržane.